createdAt,value
2017-04-22T00:00:23.651Z,11.52
2017-04-22T00:01:04.172Z,11.61
2017-04-22T00:01:44.715Z,11.6
2017-04-22T00:02:25.246Z,11.51
2017-04-22T00:03:05.781Z,11.49
2017-04-22T00:03:46.327Z,11.55
2017-04-22T00:04:26.855Z,11.52
2017-04-22T00:05:07.387Z,11.55
2017-04-22T00:05:47.933Z,11.37
2017-04-22T00:06:28.468Z,11.32
2017-04-22T00:07:09.001Z,11.44
2017-04-22T00:07:49.545Z,11.39
2017-04-22T00:08:30.085Z,11.44
2017-04-22T00:09:10.617Z,11.4
2017-04-22T00:09:51.155Z,11.36
2017-04-22T00:10:31.694Z,11.43
2017-04-22T00:11:12.231Z,11.43
2017-04-22T00:11:52.763Z,11.43
2017-04-22T00:12:33.308Z,11.33
2017-04-22T00:13:13.859Z,11.33
2017-04-22T00:13:54.407Z,11.4
2017-04-22T00:14:34.950Z,11.4
2017-04-22T00:15:15.488Z,11.39
2017-04-22T00:15:56.027Z,11.32
2017-04-22T00:16:36.564Z,11.36
2017-04-22T00:17:17.092Z,11.29
2017-04-22T00:17:57.635Z,11.32
2017-04-22T00:18:38.169Z,11.33
2017-04-22T00:19:18.701Z,11.32
2017-04-22T00:19:59.244Z,11.28
2017-04-22T00:20:39.810Z,11.29
2017-04-22T00:21:20.327Z,11.32
2017-04-22T00:22:00.859Z,11.36
2017-04-22T00:22:41.393Z,11.29
2017-04-22T00:23:21.939Z,11.22
2017-04-22T00:24:02.461Z,11.25
2017-04-22T00:24:43.001Z,11.22
2017-04-22T00:25:23.540Z,11.19
2017-04-22T00:26:04.071Z,11.17
2017-04-22T00:26:44.599Z,11.22
2017-04-22T00:27:25.142Z,11.24
2017-04-22T00:28:05.670Z,11.18
2017-04-22T00:28:46.229Z,11.25
2017-04-22T00:29:26.769Z,11.18
2017-04-22T00:30:07.304Z,11.17
2017-04-22T00:30:47.844Z,11.07
2017-04-22T00:31:28.385Z,11.18
2017-04-22T00:32:08.914Z,11.15
2017-04-22T00:32:49.446Z,11.04
2017-04-22T00:33:30.002Z,11.04
2017-04-22T00:34:10.530Z,11.06
2017-04-22T00:34:51.066Z,11.06
2017-04-22T00:35:31.607Z,11.04
2017-04-22T00:36:12.150Z,10.96
2017-04-22T00:36:52.685Z,10.92
2017-04-22T00:37:33.223Z,10.89
2017-04-22T00:38:13.747Z,10.88
2017-04-22T00:38:54.295Z,10.88
2017-04-22T00:39:34.835Z,10.88
2017-04-22T00:40:15.370Z,10.86
2017-04-22T00:40:55.909Z,10.84
2017-04-22T00:41:36.442Z,10.88
2017-04-22T00:42:16.972Z,10.82
2017-04-22T00:42:57.514Z,10.81
2017-04-22T00:43:38.041Z,10.79
2017-04-22T00:44:18.571Z,10.84
2017-04-22T00:44:59.115Z,10.79
2017-04-22T00:45:39.646Z,10.84
2017-04-22T00:46:20.173Z,10.81
2017-04-22T00:47:00.706Z,10.85
2017-04-22T00:47:41.252Z,10.92
2017-04-22T00:48:21.777Z,10.74
2017-04-22T00:49:02.318Z,10.78
2017-04-22T00:49:42.864Z,10.78
2017-04-22T00:50:23.398Z,10.73
2017-04-22T00:51:03.926Z,10.79
2017-04-22T00:51:44.468Z,10.76
2017-04-22T00:52:24.988Z,10.76
2017-04-22T00:53:05.536Z,10.73
2017-04-22T00:53:46.089Z,10.74
2017-04-22T00:54:26.621Z,10.74
2017-04-22T00:55:07.167Z,10.76
2017-04-22T00:55:47.712Z,10.74
2017-04-22T00:56:28.249Z,10.71
2017-04-22T00:57:08.784Z,10.74
2017-04-22T00:57:49.333Z,10.81
2017-04-22T00:58:29.852Z,10.78
2017-04-22T00:59:10.386Z,10.73
2017-04-22T00:59:50.930Z,10.81
2017-04-22T01:00:31.476Z,10.81
2017-04-22T01:01:12.015Z,10.74
2017-04-22T01:01:52.547Z,10.79
2017-04-22T01:02:33.088Z,10.74
2017-04-22T01:03:13.640Z,10.73
2017-04-22T01:03:54.164Z,10.64
2017-04-22T01:04:34.685Z,10.66
2017-04-22T01:05:15.259Z,10.73
2017-04-22T01:05:55.797Z,10.73
2017-04-22T01:06:36.338Z,10.74
2017-04-22T01:07:16.871Z,10.7
2017-04-22T01:07:57.407Z,10.71
2017-04-22T01:08:37.943Z,10.67
2017-04-22T01:09:18.481Z,10.7
2017-04-22T01:09:59.018Z,10.67
2017-04-22T01:10:39.556Z,10.64
2017-04-22T01:11:20.090Z,10.71
2017-04-22T01:12:00.625Z,10.74
2017-04-22T01:12:41.167Z,10.74
2017-04-22T01:13:21.711Z,10.73
2017-04-22T01:14:02.239Z,10.71
2017-04-22T01:14:42.772Z,10.7
2017-04-22T01:15:23.313Z,10.64
2017-04-22T01:16:03.858Z,10.71
2017-04-22T01:16:44.398Z,10.71
2017-04-22T01:17:24.938Z,10.64
2017-04-22T01:18:05.486Z,10.76
2017-04-22T01:18:46.024Z,10.73
2017-04-22T01:19:26.553Z,10.73
2017-04-22T01:20:07.088Z,10.73
2017-04-22T01:20:47.632Z,10.63
2017-04-22T01:21:28.166Z,10.76
2017-04-22T01:22:08.723Z,10.73
2017-04-22T01:22:49.274Z,10.74
2017-04-22T01:23:29.819Z,10.76
2017-04-22T01:24:10.349Z,10.67
2017-04-22T01:24:50.881Z,10.74
2017-04-22T01:25:31.412Z,10.64
2017-04-22T01:26:11.958Z,10.71
2017-04-22T01:26:52.508Z,10.64
2017-04-22T01:27:33.059Z,10.76
2017-04-22T01:28:13.599Z,10.82
2017-04-22T01:28:54.137Z,10.73
2017-04-22T01:29:34.692Z,10.76
2017-04-22T01:30:15.216Z,10.81
2017-04-22T01:30:55.756Z,10.73
2017-04-22T01:31:36.288Z,10.78
2017-04-22T01:32:16.827Z,10.73
2017-04-22T01:32:57.360Z,10.81
2017-04-22T01:33:37.903Z,10.73
2017-04-22T01:34:18.442Z,10.81
2017-04-22T01:34:58.986Z,10.7
2017-04-22T01:35:39.519Z,10.71
2017-04-22T01:36:20.060Z,10.71
2017-04-22T01:37:00.604Z,10.71
2017-04-22T01:37:41.150Z,10.74
2017-04-22T01:38:21.684Z,10.73
2017-04-22T01:39:02.216Z,10.79
2017-04-22T01:39:42.757Z,10.73
2017-04-22T01:40:23.297Z,10.76
2017-04-22T01:41:03.824Z,10.85
2017-04-22T01:41:44.364Z,10.74
2017-04-22T01:42:24.903Z,10.79
2017-04-22T01:43:05.446Z,10.84
2017-04-22T01:43:45.991Z,10.79
2017-04-22T01:44:26.524Z,10.85
2017-04-22T01:45:07.071Z,10.79
2017-04-22T01:45:47.616Z,10.81
2017-04-22T01:46:28.153Z,10.73
2017-04-22T01:47:08.691Z,10.73
2017-04-22T01:47:49.239Z,10.78
2017-04-22T01:48:29.783Z,10.84
2017-04-22T01:49:10.326Z,10.81
2017-04-22T01:49:50.869Z,10.84
2017-04-22T01:50:31.403Z,10.82
2017-04-22T01:51:11.932Z,10.81
2017-04-22T01:51:52.475Z,10.82
2017-04-22T01:52:33.026Z,10.86
2017-04-22T01:53:13.569Z,10.89
2017-04-22T01:53:54.111Z,10.86
2017-04-22T01:54:34.638Z,10.88
2017-04-22T01:55:15.225Z,10.85
2017-04-22T01:55:55.756Z,10.86
2017-04-22T01:56:36.296Z,10.88
2017-04-22T01:57:16.843Z,10.89
2017-04-22T01:57:57.385Z,10.89
2017-04-22T01:58:37.930Z,10.91
2017-04-22T01:59:18.465Z,10.86
2017-04-22T01:59:59.007Z,10.84
2017-04-22T02:00:39.541Z,10.85
2017-04-22T02:01:20.074Z,10.88
2017-04-22T02:02:00.619Z,10.89
2017-04-22T02:02:41.152Z,10.92
2017-04-22T02:03:21.694Z,10.85
2017-04-22T02:04:02.235Z,10.92
2017-04-22T02:04:42.785Z,10.92
2017-04-22T02:05:23.319Z,10.91
2017-04-22T02:06:03.860Z,10.94
2017-04-22T02:06:44.410Z,10.92
2017-04-22T02:07:24.922Z,10.99
2017-04-22T02:08:05.476Z,10.89
2017-04-22T02:08:46.010Z,10.92
2017-04-22T02:09:26.549Z,10.92
2017-04-22T02:10:07.089Z,10.92
2017-04-22T02:10:47.619Z,10.94
2017-04-22T02:11:28.150Z,10.92
2017-04-22T02:12:08.692Z,10.92
2017-04-22T02:12:49.231Z,10.96
2017-04-22T02:13:29.777Z,10.97
2017-04-22T02:14:10.314Z,10.97
2017-04-22T02:14:50.859Z,11.06
2017-04-22T02:15:31.395Z,10.94
2017-04-22T02:16:11.935Z,10.99
2017-04-22T02:16:52.479Z,10.96
2017-04-22T02:17:33.009Z,10.96
2017-04-22T02:18:13.549Z,10.91
2017-04-22T02:18:54.085Z,10.99
2017-04-22T02:19:34.625Z,10.92
2017-04-22T02:20:15.169Z,10.96
2017-04-22T02:20:55.719Z,10.96
2017-04-22T02:21:36.264Z,10.88
2017-04-22T02:22:16.801Z,10.92
2017-04-22T02:22:57.337Z,10.86
2017-04-22T02:23:37.876Z,10.86
2017-04-22T02:24:18.416Z,10.85
2017-04-22T02:24:58.956Z,10.88
2017-04-22T02:25:39.494Z,10.85
2017-04-22T02:26:20.047Z,10.89
2017-04-22T02:27:00.601Z,10.86
2017-04-22T02:27:41.122Z,10.91
2017-04-22T02:28:21.674Z,10.84
2017-04-22T02:29:02.212Z,10.84
2017-04-22T02:29:42.754Z,10.89
2017-04-22T02:30:23.293Z,10.92
2017-04-22T02:31:03.835Z,10.86
2017-04-22T02:31:44.366Z,10.85
2017-04-22T02:32:24.894Z,10.86
2017-04-22T02:33:05.434Z,10.84
2017-04-22T02:33:45.979Z,10.92
2017-04-22T02:34:26.524Z,10.97
2017-04-22T02:35:07.064Z,10.96
2017-04-22T02:35:47.604Z,10.86
2017-04-22T02:36:28.146Z,10.96
2017-04-22T02:37:08.682Z,10.89
2017-04-22T02:37:49.219Z,10.91
2017-04-22T02:38:29.759Z,10.86
2017-04-22T02:39:10.301Z,10.91
2017-04-22T02:39:50.839Z,10.91
2017-04-22T02:40:31.382Z,10.89
2017-04-22T02:41:11.923Z,10.97
2017-04-22T02:41:52.459Z,10.92
2017-04-22T02:42:33.002Z,10.96
2017-04-22T02:43:13.527Z,10.99
2017-04-22T02:43:54.070Z,10.91
2017-04-22T02:44:34.618Z,10.91
2017-04-22T02:45:15.157Z,10.92
2017-04-22T02:45:55.692Z,10.96
2017-04-22T02:46:36.228Z,10.96
2017-04-22T02:47:16.768Z,10.96
2017-04-22T02:47:57.311Z,10.96
2017-04-22T02:48:37.851Z,10.96
2017-04-22T02:49:18.385Z,11
2017-04-22T02:49:58.928Z,11
2017-04-22T02:50:39.468Z,10.96
2017-04-22T02:51:20.011Z,10.97
2017-04-22T02:52:00.547Z,10.91
2017-04-22T02:52:41.098Z,10.92
2017-04-22T02:53:21.683Z,11
2017-04-22T02:54:02.216Z,10.91
2017-04-22T02:54:42.758Z,10.94
2017-04-22T02:55:23.300Z,10.97
2017-04-22T02:56:03.846Z,10.96
2017-04-22T02:56:44.383Z,10.99
2017-04-22T02:57:24.915Z,10.84
2017-04-22T02:58:05.449Z,10.88
2017-04-22T02:58:45.993Z,10.86
2017-04-22T02:59:26.537Z,10.88
2017-04-22T03:00:07.087Z,10.92
2017-04-22T03:00:47.641Z,10.88
2017-04-22T03:01:28.177Z,10.85
2017-04-22T03:02:08.713Z,10.92
2017-04-22T03:02:49.258Z,10.91
2017-04-22T03:03:29.810Z,10.94
2017-04-22T03:04:10.361Z,11
2017-04-22T03:04:50.894Z,10.92
2017-04-22T03:05:31.438Z,10.97
2017-04-22T03:06:11.976Z,11
2017-04-22T03:06:52.517Z,10.92
2017-04-22T03:07:33.049Z,10.99
2017-04-22T03:08:13.591Z,11.06
2017-04-22T03:08:54.129Z,11
2017-04-22T03:09:34.660Z,10.94
2017-04-22T03:10:15.220Z,11.06
2017-04-22T03:10:55.781Z,11.04
2017-04-22T03:11:36.315Z,11.06
2017-04-22T03:12:16.871Z,11.03
2017-04-22T03:12:57.397Z,11.07
2017-04-22T03:13:37.932Z,11.07
2017-04-22T03:14:18.473Z,11.07
2017-04-22T03:14:59.007Z,11.1
2017-04-22T03:15:39.583Z,11.07
2017-04-22T03:16:20.114Z,11.07
2017-04-22T03:17:00.655Z,11.09
2017-04-22T03:17:41.205Z,11.09
2017-04-22T03:18:21.743Z,11.06
2017-04-22T03:19:02.283Z,11.03
2017-04-22T03:19:42.824Z,11
2017-04-22T03:20:23.373Z,11.15
2017-04-22T03:21:03.912Z,11.09
2017-04-22T03:21:44.456Z,11.1
2017-04-22T03:22:24.990Z,11.11
2017-04-22T03:23:05.525Z,11.04
2017-04-22T03:23:46.064Z,11.07
2017-04-22T03:24:26.590Z,11.14
2017-04-22T03:25:07.131Z,11.04
2017-04-22T03:25:47.677Z,11.15
2017-04-22T03:26:28.218Z,11.1
2017-04-22T03:27:08.757Z,11.15
2017-04-22T03:27:49.288Z,11.07
2017-04-22T03:28:29.856Z,11.03
2017-04-22T03:29:10.414Z,11.14
2017-04-22T03:29:51.037Z,11.15
2017-04-22T03:30:31.573Z,11.19
2017-04-22T03:31:12.143Z,11.04
2017-04-22T03:31:52.740Z,11.15
2017-04-22T03:32:33.368Z,11.04
2017-04-22T03:33:13.927Z,11.04
2017-04-22T03:33:54.471Z,11.09
2017-04-22T03:34:35.054Z,11.06
2017-04-22T03:35:15.643Z,11.09
2017-04-22T03:35:56.209Z,11.17
2017-04-22T03:36:36.788Z,11.11
2017-04-22T03:37:17.383Z,11.1
2017-04-22T03:37:58.045Z,11.09
2017-04-22T03:38:38.717Z,11.15
2017-04-22T03:39:19.286Z,11.07
2017-04-22T03:39:59.870Z,11.07
2017-04-22T03:40:40.399Z,11.04
2017-04-22T03:41:20.995Z,11.14
2017-04-22T03:42:01.607Z,11.09
2017-04-22T03:42:42.120Z,11.04
2017-04-22T03:43:22.716Z,11.09
2017-04-22T03:44:03.302Z,11.15
2017-04-22T03:44:43.913Z,11.1
2017-04-22T03:45:24.473Z,11.06
2017-04-22T03:46:05.052Z,11.09
2017-04-22T03:46:45.673Z,11.07
2017-04-22T03:47:26.219Z,11.11
2017-04-22T03:48:06.779Z,11.17
2017-04-22T03:48:47.399Z,11.14
2017-04-22T03:49:27.918Z,11.14
2017-04-22T03:50:08.507Z,11.14
2017-04-22T03:50:49.059Z,11.1
2017-04-22T03:51:29.626Z,11.14
2017-04-22T03:52:10.171Z,11.11
2017-04-22T03:52:50.726Z,11.14
2017-04-22T03:53:31.290Z,11.09
2017-04-22T03:54:11.839Z,11.07
2017-04-22T03:54:52.358Z,11.14
2017-04-22T03:55:32.897Z,11.07
2017-04-22T03:56:13.439Z,11.15
2017-04-22T03:56:53.987Z,11.14
2017-04-22T03:57:34.529Z,11.1
2017-04-22T03:58:15.063Z,11.14
2017-04-22T03:58:55.597Z,11.09
2017-04-22T03:59:36.151Z,11.04
2017-04-22T04:00:16.690Z,11.17
2017-04-22T04:00:57.232Z,11.07
2017-04-22T04:01:37.773Z,11.04
2017-04-22T04:02:18.303Z,11.04
2017-04-22T04:02:58.840Z,11.06
2017-04-22T04:03:39.383Z,11.1
2017-04-22T04:04:19.932Z,11.07
2017-04-22T04:05:00.482Z,11.06
2017-04-22T04:05:41.017Z,11.07
2017-04-22T04:06:21.550Z,11.06
2017-04-22T04:07:02.112Z,11.14
2017-04-22T04:07:42.649Z,11.07
2017-04-22T04:08:23.185Z,11.06
2017-04-22T04:09:03.724Z,11.09
2017-04-22T04:09:44.252Z,11.04
2017-04-22T04:10:24.790Z,10.99
2017-04-22T04:11:05.332Z,10.99
2017-04-22T04:11:45.888Z,11.06
2017-04-22T04:12:26.430Z,10.99
2017-04-22T04:13:06.965Z,10.99
2017-04-22T04:13:47.502Z,10.94
2017-04-22T04:14:28.047Z,10.97
2017-04-22T04:15:08.594Z,10.99
2017-04-22T04:15:49.130Z,11.03
2017-04-22T04:16:29.668Z,11
2017-04-22T04:17:10.202Z,11.04
2017-04-22T04:17:50.737Z,10.99
2017-04-22T04:18:31.287Z,11.04
2017-04-22T04:19:11.821Z,10.99
2017-04-22T04:19:52.363Z,11.02
2017-04-22T04:20:32.900Z,11.02
2017-04-22T04:21:13.442Z,10.96
2017-04-22T04:21:53.979Z,11
2017-04-22T04:22:34.509Z,11
2017-04-22T04:23:15.049Z,10.99
2017-04-22T04:23:55.585Z,10.99
2017-04-22T04:24:36.121Z,11
2017-04-22T04:25:16.653Z,10.99
2017-04-22T04:25:57.209Z,11.03
2017-04-22T04:26:37.754Z,11.03
2017-04-22T04:27:18.290Z,10.99
2017-04-22T04:27:58.812Z,11.03
2017-04-22T04:28:39.351Z,10.96
2017-04-22T04:29:19.897Z,11.07
2017-04-22T04:30:00.424Z,11.03
2017-04-22T04:30:40.977Z,11
2017-04-22T04:31:21.586Z,11.02
2017-04-22T04:32:02.195Z,11.03
2017-04-22T04:32:42.764Z,10.97
2017-04-22T04:33:23.315Z,11.04
2017-04-22T04:34:03.850Z,11.04
2017-04-22T04:34:44.379Z,10.94
2017-04-22T04:35:24.916Z,11.06
2017-04-22T04:36:05.446Z,11.07
2017-04-22T04:36:45.990Z,11.07
2017-04-22T04:37:26.522Z,11.09
2017-04-22T04:38:07.068Z,11.04
2017-04-22T04:38:47.602Z,11.03
2017-04-22T04:39:28.131Z,11.07
2017-04-22T04:40:08.665Z,11.06
2017-04-22T04:40:49.201Z,11.09
2017-04-22T04:41:29.751Z,11.06
2017-04-22T04:42:10.305Z,11.07
2017-04-22T04:42:50.843Z,11.04
2017-04-22T04:43:31.387Z,11.06
2017-04-22T04:44:11.929Z,11.07
2017-04-22T04:44:52.486Z,11.03
2017-04-22T04:45:33.023Z,11.02
2017-04-22T04:46:13.565Z,11.06
2017-04-22T04:46:54.109Z,11.03
2017-04-22T04:47:34.639Z,11.07
2017-04-22T04:48:15.178Z,11.06
2017-04-22T04:48:55.727Z,11
2017-04-22T04:49:36.341Z,11.06
2017-04-22T04:50:16.880Z,11
2017-04-22T04:50:57.433Z,11.06
2017-04-22T04:51:37.995Z,11.03
2017-04-22T04:52:18.529Z,11.02
2017-04-22T04:52:59.060Z,10.99
2017-04-22T04:53:39.588Z,11.04
2017-04-22T04:54:20.129Z,11.03
2017-04-22T04:55:00.673Z,11.04
2017-04-22T04:55:41.211Z,11.06
2017-04-22T04:56:21.743Z,11.04
2017-04-22T04:57:02.284Z,10.97
2017-04-22T04:57:42.832Z,11.03
2017-04-22T04:58:23.371Z,11.02
2017-04-22T04:59:03.903Z,11.02
2017-04-22T04:59:44.442Z,11
2017-04-22T05:00:24.987Z,10.99
2017-04-22T05:01:05.515Z,11.02
2017-04-22T05:01:46.047Z,11
2017-04-22T05:02:26.600Z,10.99
2017-04-22T05:03:07.117Z,11
2017-04-22T05:03:47.657Z,11.04
2017-04-22T05:04:28.201Z,11.04
2017-04-22T05:05:08.739Z,11
2017-04-22T05:05:49.274Z,10.96
2017-04-22T05:06:29.817Z,10.99
2017-04-22T05:07:10.350Z,10.86
2017-04-22T05:07:50.910Z,10.89
2017-04-22T05:08:31.437Z,10.85
2017-04-22T05:09:11.982Z,10.85
2017-04-22T05:09:52.521Z,10.84
2017-04-22T05:10:33.081Z,10.81
2017-04-22T05:11:13.618Z,10.86
2017-04-22T05:11:54.164Z,10.74
2017-04-22T05:12:34.700Z,10.7
2017-04-22T05:13:15.249Z,10.74
2017-04-22T05:13:55.783Z,10.76
2017-04-22T05:14:36.327Z,10.64
2017-04-22T05:15:16.863Z,10.67
2017-04-22T05:15:57.406Z,10.61
2017-04-22T05:16:37.949Z,10.56
2017-04-22T05:17:18.482Z,10.42
2017-04-22T05:17:59.015Z,10.38
2017-04-22T05:18:39.556Z,10.3
2017-04-22T05:19:20.088Z,10.29
2017-04-22T05:20:00.629Z,10.23
2017-04-22T05:20:41.163Z,10.15
2017-04-22T05:21:21.710Z,10.08
2017-04-22T05:22:02.248Z,10.01
2017-04-22T05:22:42.774Z,9.89
2017-04-22T05:23:23.315Z,9.86
2017-04-22T05:24:03.844Z,9.84
2017-04-22T05:24:44.368Z,9.83
2017-04-22T05:25:24.915Z,9.76
2017-04-22T05:26:05.459Z,9.65
2017-04-22T05:26:45.997Z,9.6
2017-04-22T05:27:26.525Z,9.66
2017-04-22T05:28:07.059Z,9.54
2017-04-22T05:28:47.615Z,9.64
2017-04-22T05:29:28.158Z,9.58
2017-04-22T05:30:08.706Z,9.56
2017-04-22T05:30:49.287Z,9.51
2017-04-22T05:31:29.822Z,9.51
2017-04-22T05:32:10.352Z,9.47
2017-04-22T05:32:50.913Z,9.46
2017-04-22T05:33:31.444Z,9.42
2017-04-22T05:34:12.022Z,9.4
2017-04-22T05:34:52.584Z,9.36
2017-04-22T05:35:33.124Z,9.33
2017-04-22T05:36:13.664Z,9.31
2017-04-22T05:36:54.224Z,9.2
2017-04-22T05:37:34.745Z,9.24
2017-04-22T05:38:15.290Z,9.24
2017-04-22T05:38:55.825Z,9.23
2017-04-22T05:39:36.398Z,9.15
2017-04-22T05:40:16.928Z,9.08
2017-04-22T05:40:57.459Z,9.1
2017-04-22T05:41:37.999Z,9.01
2017-04-22T05:42:18.549Z,9.02
2017-04-22T05:42:59.090Z,8.98
2017-04-22T05:43:39.627Z,8.91
2017-04-22T05:44:20.161Z,8.92
2017-04-22T05:45:00.679Z,8.91
2017-04-22T05:45:41.208Z,8.87
2017-04-22T05:46:21.747Z,8.87
2017-04-22T05:47:02.484Z,8.79
2017-04-22T05:47:43.343Z,8.79
2017-04-22T05:48:23.851Z,8.77
2017-04-22T05:49:04.382Z,8.63
2017-04-22T05:49:44.912Z,8.7
2017-04-22T05:50:25.461Z,8.55
2017-04-22T05:51:05.999Z,8.48
2017-04-22T05:51:46.547Z,8.36
2017-04-22T05:52:27.098Z,8.38
2017-04-22T05:53:07.635Z,8.29
2017-04-22T05:53:48.220Z,8.28
2017-04-22T05:54:28.968Z,8.25
2017-04-22T05:55:09.508Z,8.2
2017-04-22T05:55:50.051Z,8.23
2017-04-22T05:56:30.584Z,8.11
2017-04-22T05:57:11.109Z,8.26
2017-04-22T05:57:51.753Z,8.19
2017-04-22T05:58:32.287Z,8.2
2017-04-22T05:59:12.823Z,8.25
2017-04-22T05:59:53.353Z,8.16
2017-04-22T06:00:33.903Z,8.11
2017-04-22T06:01:14.427Z,8.23
2017-04-22T06:01:54.962Z,8.22
2017-04-22T06:02:35.515Z,8.12
2017-04-22T06:03:16.051Z,8.12
2017-04-22T06:03:56.595Z,8.12
2017-04-22T06:04:37.130Z,8.12
2017-04-22T06:05:17.676Z,8.11
2017-04-22T06:05:58.225Z,8.04
2017-04-22T06:06:38.737Z,8.04
2017-04-22T06:07:19.270Z,8.04
2017-04-22T06:07:59.803Z,8.08
2017-04-22T06:08:40.338Z,7.97
2017-04-22T06:09:20.873Z,8.04
2017-04-22T06:10:01.413Z,8.07
2017-04-22T06:10:41.992Z,8
2017-04-22T06:11:22.542Z,8.07
2017-04-22T06:12:03.083Z,8.08
2017-04-22T06:12:43.617Z,7.92
2017-04-22T06:13:24.152Z,8.01
2017-04-22T06:14:04.670Z,7.9
2017-04-22T06:14:45.203Z,8
2017-04-22T06:15:25.730Z,8.05
2017-04-22T06:16:06.292Z,7.95
2017-04-22T06:16:46.788Z,7.95
2017-04-22T06:17:27.332Z,7.87
2017-04-22T06:18:07.888Z,7.87
2017-04-22T06:18:48.424Z,7.86
2017-04-22T06:19:28.980Z,7.82
2017-04-22T06:20:09.496Z,7.89
2017-04-22T06:20:50.030Z,7.9
2017-04-22T06:21:30.562Z,7.86
2017-04-22T06:22:11.083Z,7.79
2017-04-22T06:22:51.629Z,7.85
2017-04-22T06:23:32.166Z,7.83
2017-04-22T06:24:12.693Z,7.83
2017-04-22T06:24:53.233Z,7.86
2017-04-22T06:25:33.820Z,7.83
2017-04-22T06:26:14.371Z,7.82
2017-04-22T06:26:54.902Z,7.79
2017-04-22T06:27:35.435Z,7.82
2017-04-22T06:28:15.977Z,7.8
2017-04-22T06:28:56.485Z,7.79
2017-04-22T06:29:37.017Z,7.8
2017-04-22T06:30:17.541Z,7.83
2017-04-22T06:30:58.085Z,7.83
2017-04-22T06:31:38.614Z,7.79
2017-04-22T06:32:19.149Z,7.8
2017-04-22T06:32:59.690Z,7.77
2017-04-22T06:33:40.225Z,7.8
2017-04-22T06:34:20.762Z,7.79
2017-04-22T06:35:01.298Z,7.82
2017-04-22T06:35:41.821Z,7.79
2017-04-22T06:36:22.349Z,7.74
2017-04-22T06:37:02.881Z,7.75
2017-04-22T06:37:43.422Z,7.69
2017-04-22T06:38:23.991Z,7.74
2017-04-22T06:39:04.530Z,7.74
2017-04-22T06:39:45.113Z,7.79
2017-04-22T06:40:25.632Z,7.79
2017-04-22T06:41:06.181Z,7.79
2017-04-22T06:41:46.712Z,7.75
2017-04-22T06:42:27.269Z,7.77
2017-04-22T06:43:07.811Z,7.79
2017-04-22T06:43:48.348Z,7.79
2017-04-22T06:44:28.883Z,7.8
2017-04-22T06:45:09.431Z,7.77
2017-04-22T06:45:49.961Z,7.72
2017-04-22T06:46:30.496Z,7.63
2017-04-22T06:47:11.043Z,7.69
2017-04-22T06:47:51.616Z,7.63
2017-04-22T06:48:32.237Z,7.69
2017-04-22T06:49:12.747Z,7.69
2017-04-22T06:49:53.277Z,7.64
2017-04-22T06:50:33.828Z,7.71
2017-04-22T06:51:14.337Z,7.74
2017-04-22T06:51:54.877Z,7.69
2017-04-22T06:52:35.421Z,7.75
2017-04-22T06:53:15.942Z,7.72
2017-04-22T06:53:56.527Z,7.71
2017-04-22T06:54:37.084Z,7.71
2017-04-22T06:55:17.636Z,7.69
2017-04-22T06:55:58.185Z,7.72
2017-04-22T06:56:38.732Z,7.72
2017-04-22T06:57:19.265Z,7.72
2017-04-22T06:57:59.791Z,7.74
2017-04-22T06:58:40.329Z,7.77
2017-04-22T06:59:20.897Z,7.83
2017-04-22T07:00:01.484Z,7.82
2017-04-22T07:00:42.025Z,7.82
2017-04-22T07:01:22.576Z,7.9
2017-04-22T07:02:03.123Z,7.87
2017-04-22T07:02:43.686Z,7.93
2017-04-22T07:03:24.233Z,8
2017-04-22T07:04:04.790Z,7.98
2017-04-22T07:04:45.326Z,7.95
2017-04-22T07:05:25.851Z,7.98
2017-04-22T07:06:06.417Z,7.93
2017-04-22T07:06:46.933Z,7.9
2017-04-22T07:07:27.478Z,7.87
2017-04-22T07:08:08.006Z,7.87
2017-04-22T07:08:48.744Z,7.8
2017-04-22T07:09:29.324Z,7.75
2017-04-22T07:10:09.884Z,7.71
2017-04-22T07:10:50.464Z,7.61
2017-04-22T07:11:31.045Z,7.55
2017-04-22T07:12:11.593Z,7.48
2017-04-22T07:12:52.154Z,7.55
2017-04-22T07:13:32.719Z,7.53
2017-04-22T07:14:13.292Z,7.55
2017-04-22T07:14:53.857Z,7.55
2017-04-22T07:15:34.509Z,7.6
2017-04-22T07:16:15.061Z,7.52
2017-04-22T07:16:55.600Z,7.53
2017-04-22T07:17:36.163Z,7.55
2017-04-22T07:18:16.697Z,7.55
2017-04-22T07:18:57.238Z,7.5
2017-04-22T07:19:37.774Z,7.57
2017-04-22T07:20:18.350Z,7.58
2017-04-22T07:20:58.965Z,7.5
2017-04-22T07:21:39.501Z,7.52
2017-04-22T07:22:20.043Z,7.4
2017-04-22T07:23:00.630Z,7.5
2017-04-22T07:23:41.175Z,7.42
2017-04-22T07:24:21.711Z,7.42
2017-04-22T07:25:02.255Z,7.48
2017-04-22T07:25:42.819Z,7.5
2017-04-22T07:26:23.391Z,7.53
2017-04-22T07:27:03.952Z,7.48
2017-04-22T07:27:44.503Z,7.48
2017-04-22T07:28:25.127Z,7.55
2017-04-22T07:29:05.720Z,7.52
2017-04-22T07:29:46.258Z,7.55
2017-04-22T07:30:26.752Z,7.5
2017-04-22T07:31:07.293Z,7.49
2017-04-22T07:31:47.832Z,7.55
2017-04-22T07:32:28.378Z,7.48
2017-04-22T07:33:08.933Z,7.5
2017-04-22T07:33:49.505Z,7.55
2017-04-22T07:34:30.114Z,7.6
2017-04-22T07:35:10.687Z,7.68
2017-04-22T07:35:51.242Z,7.68
2017-04-22T07:36:31.773Z,7.72
2017-04-22T07:37:12.309Z,7.72
2017-04-22T07:37:52.853Z,7.71
2017-04-22T07:38:33.435Z,7.77
2017-04-22T07:39:13.964Z,7.87
2017-04-22T07:39:54.508Z,7.82
2017-04-22T07:40:35.037Z,7.89
2017-04-22T07:41:15.615Z,7.9
2017-04-22T07:41:56.216Z,7.97
2017-04-22T07:42:36.845Z,7.82
2017-04-22T07:43:17.402Z,7.9
2017-04-22T07:43:58.015Z,7.97
2017-04-22T07:44:38.521Z,7.92
2017-04-22T07:45:19.098Z,7.9
2017-04-22T07:45:59.651Z,7.92
2017-04-22T07:46:40.253Z,7.92
2017-04-22T07:47:20.776Z,7.93
2017-04-22T07:48:01.355Z,7.92
2017-04-22T07:48:46.579Z,7.97
2017-04-22T07:49:27.176Z,7.93
2017-04-22T07:50:07.790Z,7.95
2017-04-22T07:50:48.389Z,7.87
2017-04-22T07:51:28.943Z,7.97
2017-04-22T07:52:09.603Z,7.89
2017-04-22T07:52:50.115Z,7.95
2017-04-22T07:53:30.673Z,7.93
2017-04-22T07:54:11.225Z,8.04
2017-04-22T07:54:51.761Z,7.9
2017-04-22T07:55:32.296Z,7.93
2017-04-22T07:56:12.845Z,7.92
2017-04-22T07:56:53.389Z,8.02
2017-04-22T07:57:33.926Z,8.04
2017-04-22T07:58:14.571Z,8.01
2017-04-22T07:58:55.104Z,8.08
2017-04-22T07:59:35.635Z,8.05
2017-04-22T08:00:16.206Z,8.11
2017-04-22T08:00:56.731Z,8.1
2017-04-22T08:01:37.290Z,8.2
2017-04-22T08:02:17.834Z,8.15
2017-04-22T08:02:58.373Z,8.15
2017-04-22T08:03:38.907Z,8.12
2017-04-22T08:04:19.443Z,8.22
2017-04-22T08:04:59.983Z,8.2
2017-04-22T08:05:40.501Z,8.2
2017-04-22T08:06:21.067Z,8.23
2017-04-22T08:07:01.602Z,8.22
2017-04-22T08:07:42.199Z,8.23
2017-04-22T08:08:22.675Z,8.22
2017-04-22T08:09:03.233Z,8.02
2017-04-22T08:09:43.769Z,8.05
2017-04-22T08:10:24.309Z,8.05
2017-04-22T08:11:04.890Z,7.95
2017-04-22T08:13:19.199Z,7.92
2017-04-22T08:13:59.749Z,7.85
2017-04-22T08:14:40.302Z,7.83
2017-04-22T08:15:20.856Z,7.83
2017-04-22T08:16:01.401Z,7.83
2017-04-22T08:16:41.931Z,7.83
2017-04-22T08:17:22.460Z,7.68
2017-04-22T08:18:02.992Z,7.71
2017-04-22T08:18:43.558Z,7.68
2017-04-22T08:19:24.137Z,7.63
2017-04-22T08:20:04.690Z,7.67
2017-04-22T08:20:45.223Z,7.63
2017-04-22T08:21:25.771Z,7.69
2017-04-22T08:22:12.804Z,7.67
2017-04-22T08:22:53.395Z,7.77
2017-04-22T08:23:33.995Z,7.79
2017-04-22T08:24:14.524Z,7.79
2017-04-22T08:24:55.058Z,7.85
2017-04-22T08:25:35.640Z,7.8
2017-04-22T08:26:16.173Z,7.89
2017-04-22T08:26:56.709Z,7.9
2017-04-22T08:27:37.236Z,7.95
2017-04-22T08:28:17.767Z,7.97
2017-04-22T08:28:58.340Z,8.11
2017-04-22T08:29:38.880Z,8.15
2017-04-22T08:30:19.420Z,8.23
2017-04-22T08:30:59.967Z,8.26
2017-04-22T08:31:40.502Z,8.22
2017-04-22T08:32:21.039Z,8.26
2017-04-22T08:33:01.578Z,8.25
2017-04-22T08:33:42.118Z,8.26
2017-04-22T08:34:22.661Z,8.28
2017-04-22T08:35:03.176Z,8.28
2017-04-22T08:35:43.715Z,8.33
2017-04-22T08:36:24.246Z,8.25
2017-04-22T08:37:04.775Z,8.26
2017-04-22T08:37:45.315Z,8.22
2017-04-22T08:38:25.849Z,8.26
2017-04-22T08:39:06.386Z,8.18
2017-04-22T08:39:46.924Z,8.18
2017-04-22T08:40:27.456Z,8.05
2017-04-22T08:41:07.985Z,8.08
2017-04-22T08:41:48.498Z,8.08
2017-04-22T08:42:29.034Z,7.97
2017-04-22T08:43:09.612Z,7.98
2017-04-22T08:43:50.146Z,7.98
2017-04-22T08:44:30.674Z,7.92
2017-04-22T08:45:11.200Z,8.04
2017-04-22T08:45:51.733Z,7.98
2017-04-22T08:46:32.264Z,7.95
2017-04-22T08:47:12.796Z,8.02
2017-04-22T08:47:53.336Z,7.98
2017-04-22T08:48:33.862Z,7.97
2017-04-22T08:49:14.404Z,8.08
2017-04-22T08:49:54.934Z,8.08
2017-04-22T08:50:35.461Z,8.15
2017-04-22T08:51:15.995Z,8.11
2017-04-22T08:51:56.526Z,8.15
2017-04-22T08:52:37.064Z,8.15
2017-04-22T08:53:17.584Z,8.22